sensor_id;sensor_type;location;lat;lon;timestamp;pressure;altitude;pressure_sealevel;temperature;humidity
45345;BME280;31078;48.304;11.896;2023-02-22T00:01:09;96215.28;;;4.16;84.51
45345;BME280;31078;48.304;11.896;2023-02-22T00:03:47;96214.47;;;4.15;85.41
45345;BME280;31078;48.304;11.896;2023-02-22T00:06:15;96213.38;;;4.16;85.43
45345;BME280;31078;48.304;11.896;2023-02-22T00:08:42;96209.06;;;4.15;85.86
45345;BME280;31078;48.304;11.896;2023-02-22T00:11:08;96211.47;;;4.17;86.08
45345;BME280;31078;48.304;11.896;2023-02-22T00:13:36;96206.91;;;4.17;86.16
45345;BME280;31078;48.304;11.896;2023-02-22T00:16:03;96207.72;;;4.18;85.98
45345;BME280;31078;48.304;11.896;2023-02-22T00:18:30;96202.34;;;4.18;85.90
45345;BME280;31078;48.304;11.896;2023-02-22T00:20:59;96204.50;;;4.16;85.47
45345;BME280;31078;48.304;11.896;2023-02-22T00:23:28;96205.63;;;4.10;84.21
45345;BME280;31078;48.304;11.896;2023-02-22T00:25:55;96197.56;;;4.05;83.64
45345;BME280;31078;48.304;11.896;2023-02-22T00:28:22;96204.03;;;4.04;84.29
45345;BME280;31078;48.304;11.896;2023-02-22T00:30:49;96196.75;;;4.04;84.99
45345;BME280;31078;48.304;11.896;2023-02-22T00:33:16;96201.59;;;4.07;85.73
45345;BME280;31078;48.304;11.896;2023-02-22T00:35:44;96201.81;;;4.11;85.99
45345;BME280;31078;48.304;11.896;2023-02-22T00:38:14;96193.50;;;4.12;86.55
45345;BME280;31078;48.304;11.896;2023-02-22T00:40:42;96190.50;;;4.14;86.54
45345;BME280;31078;48.304;11.896;2023-02-22T00:43:09;96199.09;;;4.16;87.10
45345;BME280;31078;48.304;11.896;2023-02-22T00:45:36;96190.72;;;4.17;87.66
45345;BME280;31078;48.304;11.896;2023-02-22T00:48:04;96188.91;;;4.13;87.79
45345;BME280;31078;48.304;11.896;2023-02-22T00:50:31;96188.31;;;4.16;87.71
45345;BME280;31078;48.304;11.896;2023-02-22T00:52:59;96191.56;;;4.18;87.74
45345;BME280;31078;48.304;11.896;2023-02-22T00:55:32;96191.28;;;4.19;87.70
45345;BME280;31078;48.304;11.896;2023-02-22T00:58:00;96188.56;;;4.19;87.71
45345;BME280;31078;48.304;11.896;2023-02-22T01:00:29;96190.19;;;4.21;87.69
45345;BME280;31078;48.304;11.896;2023-02-22T01:02:56;96184.78;;;4.21;87.92
45345;BME280;31078;48.304;11.896;2023-02-22T01:05:25;96189.41;;;4.15;87.60
45345;BME280;31078;48.304;11.896;2023-02-22T01:07:52;96187.25;;;4.12;86.94
45345;BME280;31078;48.304;11.896;2023-02-22T01:10:22;96187.31;;;4.07;86.17
45345;BME280;31078;48.304;11.896;2023-02-22T01:12:51;96186.53;;;4.01;85.56
45345;BME280;31078;48.304;11.896;2023-02-22T01:15:20;96182.28;;;3.95;85.53
45345;BME280;31078;48.304;11.896;2023-02-22T01:17:48;96174.50;;;3.88;85.06
45345;BME280;31078;48.304;11.896;2023-02-22T01:20:15;96175.63;;;3.82;84.30
45345;BME280;31078;48.304;11.896;2023-02-22T01:22:45;96181.06;;;3.72;83.68
45345;BME280;31078;48.304;11.896;2023-02-22T01:25:16;96173.56;;;3.64;83.50
45345;BME280;31078;48.304;11.896;2023-02-22T01:27:43;96170.91;;;3.59;83.80
45345;BME280;31078;48.304;11.896;2023-02-22T01:30:13;96163.41;;;3.56;84.08
45345;BME280;31078;48.304;11.896;2023-02-22T01:32:40;96163.13;;;3.52;84.21
45345;BME280;31078;48.304;11.896;2023-02-22T01:35:10;96160.19;;;3.49;83.94
45345;BME280;31078;48.304;11.896;2023-02-22T01:37:38;96163.72;;;3.44;84.06
45345;BME280;31078;48.304;11.896;2023-02-22T01:40:07;96159.19;;;3.39;84.11
45345;BME280;31078;48.304;11.896;2023-02-22T01:42:34;96157.31;;;3.35;84.41
45345;BME280;31078;48.304;11.896;2023-02-22T01:48:27;96161.38;;;3.27;85.05
45345;BME280;31078;48.304;11.896;2023-02-22T01:50:58;96165.16;;;3.26;85.46
45345;BME280;31078;48.304;11.896;2023-02-22T01:53:28;96148.47;;;3.29;86.18
45345;BME280;31078;48.304;11.896;2023-02-22T01:55:57;96150.59;;;3.32;86.81
45345;BME280;31078;48.304;11.896;2023-02-22T01:58:25;96153.84;;;3.29;87.28
45345;BME280;31078;48.304;11.896;2023-02-22T02:00:52;96148.97;;;3.31;87.01
45345;BME280;31078;48.304;11.896;2023-02-22T02:03:23;96145.78;;;3.29;86.88
45345;BME280;31078;48.304;11.896;2023-02-22T02:05:53;96139.31;;;3.25;86.93
45345;BME280;31078;48.304;11.896;2023-02-22T02:08:26;96142.81;;;3.26;86.86
45345;BME280;31078;48.304;11.896;2023-02-22T02:10:56;96139.56;;;3.29;87.56
45345;BME280;31078;48.304;11.896;2023-02-22T02:13:23;96129.31;;;3.36;88.31
45345;BME280;31078;48.304;11.896;2023-02-22T02:15:53;96130.59;;;3.44;89.09
45345;BME280;31078;48.304;11.896;2023-02-22T02:18:22;96130.03;;;3.52;90.58
45345;BME280;31078;48.304;11.896;2023-02-22T02:21:03;96129.97;;;3.62;91.61
45345;BME280;31078;48.304;11.896;2023-02-22T02:23:54;96132.06;;;3.70;92.55
45345;BME280;31078;48.304;11.896;2023-02-22T02:26:58;96125.56;;;3.76;93.14
45345;BME280;31078;48.304;11.896;2023-02-22T02:32:47;96120.84;;;3.97;94.34
45345;BME280;31078;48.304;11.896;2023-02-22T02:35:22;96130.75;;;4.02;94.16
45345;BME280;31078;48.304;11.896;2023-02-22T02:37:56;96112.94;;;4.06;93.61
45345;BME280;31078;48.304;11.896;2023-02-22T02:40:30;96118.34;;;4.06;93.19
45345;BME280;31078;48.304;11.896;2023-02-22T02:43:05;96114.00;;;4.10;92.84
45345;BME280;31078;48.304;11.896;2023-02-22T02:45:37;96117.19;;;4.12;92.49
45345;BME280;31078;48.304;11.896;2023-02-22T02:48:10;96111.34;;;4.05;91.44
45345;BME280;31078;48.304;11.896;2023-02-22T02:50:41;96108.41;;;4.01;91.03
45345;BME280;31078;48.304;11.896;2023-02-22T02:53:11;96113.03;;;3.96;90.15
45345;BME280;31078;48.304;11.896;2023-02-22T02:55:38;96114.16;;;3.89;90.07
45345;BME280;31078;48.304;11.896;2023-02-22T02:58:06;96106.13;;;3.84;89.86
45345;BME280;31078;48.304;11.896;2023-02-22T03:00:35;96104.25;;;3.80;89.25
45345;BME280;31078;48.304;11.896;2023-02-22T03:03:14;96091.13;;;3.73;89.26
45345;BME280;31078;48.304;11.896;2023-02-22T03:05:55;96092.22;;;3.72;88.97
45345;BME280;31078;48.304;11.896;2023-02-22T03:08:29;96098.13;;;3.69;89.02
45345;BME280;31078;48.304;11.896;2023-02-22T03:11:01;96090.91;;;3.64;88.72
45345;BME280;31078;48.304;11.896;2023-02-22T03:13:34;96083.66;;;3.60;88.66
45345;BME280;31078;48.304;11.896;2023-02-22T03:16:12;96076.66;;;3.59;88.81
45345;BME280;31078;48.304;11.896;2023-02-22T03:18:49;96077.25;;;3.56;89.17
45345;BME280;31078;48.304;11.896;2023-02-22T03:21:24;96075.09;;;3.53;89.70
45345;BME280;31078;48.304;11.896;2023-02-22T03:24:00;96072.16;;;3.49;89.98
45345;BME280;31078;48.304;11.896;2023-02-22T03:26:34;96067.56;;;3.50;90.07
45345;BME280;31078;48.304;11.896;2023-02-22T03:29:05;96067.06;;;3.48;90.17
45345;BME280;31078;48.304;11.896;2023-02-22T03:31:35;96067.56;;;3.50;90.23
45345;BME280;31078;48.304;11.896;2023-02-22T03:34:07;96065.41;;;3.52;90.15
45345;BME280;31078;48.304;11.896;2023-02-22T03:36:40;96067.03;;;3.53;90.45
45345;BME280;31078;48.304;11.896;2023-02-22T03:39:09;96061.63;;;3.53;90.19
45345;BME280;31078;48.304;11.896;2023-02-22T03:41:42;96065.41;;;3.52;90.26
45345;BME280;31078;48.304;11.896;2023-02-22T03:44:13;96070.00;;;3.51;90.32
45345;BME280;31078;48.304;11.896;2023-02-22T03:46:41;96068.41;;;3.50;90.23
45345;BME280;31078;48.304;11.896;2023-02-22T03:49:13;96066.78;;;3.49;89.73
45345;BME280;31078;48.304;11.896;2023-02-22T03:51:44;96068.16;;;3.47;88.86
45345;BME280;31078;48.304;11.896;2023-02-22T03:54:11;96074.66;;;3.40;88.50
45345;BME280;31078;48.304;11.896;2023-02-22T03:56:43;96068.75;;;3.33;87.88
45345;BME280;31078;48.304;11.896;2023-02-22T03:59:14;96069.91;;;3.22;87.23
45345;BME280;31078;48.304;11.896;2023-02-22T04:01:41;96076.41;;;3.16;87.22
45345;BME280;31078;48.304;11.896;2023-02-22T04:04:09;96074.81;;;3.10;87.04
45345;BME280;31078;48.304;11.896;2023-02-22T04:06:36;96080.78;;;3.02;87.18
45345;BME280;31078;48.304;11.896;2023-02-22T04:09:02;96086.44;;;2.95;87.23
45345;BME280;31078;48.304;11.896;2023-02-22T04:11:29;96091.06;;;2.90;88.20
45345;BME280;31078;48.304;11.896;2023-02-22T04:13:56;96104.50;;;2.84;89.03
45345;BME280;31078;48.304;11.896;2023-02-22T04:16:22;96101.84;;;2.79;89.84
45345;BME280;31078;48.304;11.896;2023-02-22T04:18:49;96098.88;;;2.81;90.01
45345;BME280;31078;48.304;11.896;2023-02-22T04:21:16;96097.84;;;2.77;90.33
45345;BME280;31078;48.304;11.896;2023-02-22T04:23:43;96097.56;;;2.78;90.25
45345;BME280;31078;48.304;11.896;2023-02-22T04:26:09;96097.00;;;2.76;89.72
45345;BME280;31078;48.304;11.896;2023-02-22T04:28:36;96090.31;;;2.69;89.21
45345;BME280;31078;48.304;11.896;2023-02-22T04:31:03;96093.03;;;2.64;88.82
45345;BME280;31078;48.304;11.896;2023-02-22T04:33:29;96095.72;;;2.58;88.49
45345;BME280;31078;48.304;11.896;2023-02-22T04:35:56;96097.63;;;2.53;88.07
45345;BME280;31078;48.304;11.896;2023-02-22T04:38:25;96101.94;;;2.49;87.93
45345;BME280;31078;48.304;11.896;2023-02-22T04:40:52;96096.03;;;2.42;88.80
45345;BME280;31078;48.304;11.896;2023-02-22T04:43:19;96098.72;;;2.47;89.19
45345;BME280;31078;48.304;11.896;2023-02-22T04:45:46;96096.56;;;2.49;89.89
45345;BME280;31078;48.304;11.896;2023-02-22T04:48:13;96096.03;;;2.52;90.30
45345;BME280;31078;48.304;11.896;2023-02-22T04:50:39;96085.00;;;2.53;90.62
45345;BME280;31078;48.304;11.896;2023-02-22T04:53:06;96084.72;;;2.55;91.04
45345;BME280;31078;48.304;11.896;2023-02-22T04:55:34;96079.06;;;2.56;90.96
45345;BME280;31078;48.304;11.896;2023-02-22T04:58:00;96080.97;;;2.56;91.20
45345;BME280;31078;48.304;11.896;2023-02-22T05:00:27;96077.19;;;2.57;91.31
45345;BME280;31078;48.304;11.896;2023-02-22T05:02:53;96080.13;;;2.55;91.29
45345;BME280;31078;48.304;11.896;2023-02-22T05:05:20;96073.72;;;2.56;91.32
45345;BME280;31078;48.304;11.896;2023-02-22T05:07:47;96076.09;;;2.58;91.45
45345;BME280;31078;48.304;11.896;2023-02-22T05:10:14;96069.66;;;2.59;91.36
45345;BME280;31078;48.304;11.896;2023-02-22T05:12:42;96075.03;;;2.59;91.30
45345;BME280;31078;48.304;11.896;2023-02-22T05:15:10;96080.41;;;2.59;91.29
45345;BME280;31078;48.304;11.896;2023-02-22T05:17:40;96079.59;;;2.58;91.12
45345;BME280;31078;48.304;11.896;2023-02-22T05:20:08;96080.41;;;2.59;90.88
45345;BME280;31078;48.304;11.896;2023-02-22T05:22:36;96073.72;;;2.56;90.70
45345;BME280;31078;48.304;11.896;2023-02-22T05:25:03;96068.59;;;2.55;90.57
45345;BME280;31078;48.304;11.896;2023-02-22T05:27:30;96073.16;;;2.54;90.48
45345;BME280;31078;48.304;11.896;2023-02-22T05:29:57;96071.84;;;2.52;90.38
45345;BME280;31078;48.304;11.896;2023-02-22T05:32:24;96065.91;;;2.50;90.23
45345;BME280;31078;48.304;11.896;2023-02-22T05:34:51;96064.31;;;2.49;90.19
45345;BME280;31078;48.304;11.896;2023-02-22T05:37:18;96065.66;;;2.46;90.67
45345;BME280;31078;48.304;11.896;2023-02-22T05:39:44;96064.03;;;2.45;90.78
45345;BME280;31078;48.304;11.896;2023-02-22T05:42:11;96068.59;;;2.45;91.06
45345;BME280;31078;48.304;11.896;2023-02-22T05:44:38;96065.91;;;2.45;91.11
45345;BME280;31078;48.304;11.896;2023-02-22T05:47:05;96067.00;;;2.44;90.96
45345;BME280;31078;48.304;11.896;2023-02-22T05:49:32;96072.38;;;2.44;90.92
45345;BME280;31078;48.304;11.896;2023-02-22T05:51:58;96072.09;;;2.40;90.82
45345;BME280;31078;48.304;11.896;2023-02-22T05:54:25;96066.50;;;2.37;90.94
45345;BME280;31078;48.304;11.896;2023-02-22T05:56:51;96064.88;;;2.35;90.80
45345;BME280;31078;48.304;11.896;2023-02-22T05:59:18;96068.13;;;2.32;90.97
45345;BME280;31078;48.304;11.896;2023-02-22T06:01:45;96067.59;;;2.30;90.95
45345;BME280;31078;48.304;11.896;2023-02-22T06:04:12;96067.03;;;2.28;90.86
45345;BME280;31078;48.304;11.896;2023-02-22T06:06:39;96065.44;;;2.22;90.68
45345;BME280;31078;48.304;11.896;2023-02-22T06:09:05;96060.06;;;2.22;91.02
45345;BME280;31078;48.304;11.896;2023-02-22T06:11:32;96059.00;;;2.18;90.88
45345;BME280;31078;48.304;11.896;2023-02-22T06:13:58;96058.47;;;2.16;90.97
45345;BME280;31078;48.304;11.896;2023-02-22T06:16:25;96063.84;;;2.16;91.04
45345;BME280;31078;48.304;11.896;2023-02-22T06:18:52;96065.19;;;2.19;91.26
45345;BME280;31078;48.304;11.896;2023-02-22T06:21:20;96067.59;;;2.20;91.19
45345;BME280;31078;48.304;11.896;2023-02-22T06:23:46;96065.72;;;2.21;91.20
45345;BME280;31078;48.304;11.896;2023-02-22T06:26:15;96072.41;;;2.23;91.50
45345;BME280;31078;48.304;11.896;2023-02-22T06:28:41;96065.72;;;2.26;91.17
45345;BME280;31078;48.304;11.896;2023-02-22T06:31:08;96069.72;;;2.28;90.74
45345;BME280;31078;48.304;11.896;2023-02-22T06:33:34;96066.50;;;2.31;90.50
45345;BME280;31078;48.304;11.896;2023-02-22T06:36:00;96071.63;;;2.28;90.29
45345;BME280;31078;48.304;11.896;2023-02-22T06:38:28;96076.72;;;2.29;89.84
45345;BME280;31078;48.304;11.896;2023-02-22T06:40:55;96070.28;;;2.30;89.60
45345;BME280;31078;48.304;11.896;2023-02-22T06:43:22;96074.00;;;2.34;89.34
45345;BME280;31078;48.304;11.896;2023-02-22T06:45:49;96074.84;;;2.30;88.88
45345;BME280;31078;48.304;11.896;2023-02-22T06:48:16;96073.50;;;2.32;88.72
45345;BME280;31078;48.304;11.896;2023-02-22T06:50:42;96076.69;;;2.34;88.55
45345;BME280;31078;48.304;11.896;2023-02-22T06:53:09;96075.09;;;2.39;88.49
45345;BME280;31078;48.304;11.896;2023-02-22T06:55:36;96076.69;;;2.40;88.53
45345;BME280;31078;48.304;11.896;2023-02-22T06:58:03;96077.22;;;2.47;88.76
45345;BME280;31078;48.304;11.896;2023-02-22T07:00:31;96069.16;;;2.52;89.25
45345;BME280;31078;48.304;11.896;2023-02-22T07:02:58;96075.56;;;2.61;89.36
45345;BME280;31078;48.304;11.896;2023-02-22T07:05:26;96076.06;;;2.68;89.85
45345;BME280;31078;48.304;11.896;2023-02-22T07:08:01;96080.88;;;2.76;89.51
45345;BME280;31078;48.304;11.896;2023-02-22T07:10:30;96077.31;;;2.91;89.86
45345;BME280;31078;48.304;11.896;2023-02-22T07:12:59;96080.50;;;3.03;90.42
45345;BME280;31078;48.304;11.896;2023-02-22T07:15:26;96067.25;;;3.12;90.24
45345;BME280;31078;48.304;11.896;2023-02-22T07:17:54;96072.59;;;3.22;89.83
45345;BME280;31078;48.304;11.896;2023-02-22T07:20:21;96073.91;;;3.30;89.30
45345;BME280;31078;48.304;11.896;2023-02-22T07:22:48;96076.25;;;3.42;89.00
45345;BME280;31078;48.304;11.896;2023-02-22T07:25:15;96078.59;;;3.53;88.76
45345;BME280;31078;48.304;11.896;2023-02-22T07:27:42;96076.31;;;3.71;88.35
45345;BME280;31078;48.304;11.896;2023-02-22T07:30:17;96068.41;;;3.84;88.09
45345;BME280;31078;48.304;11.896;2023-02-22T07:32:44;96066.38;;;4.00;87.53
45345;BME280;31078;48.304;11.896;2023-02-22T07:35:14;96072.72;;;4.14;87.26
45345;BME280;31078;48.304;11.896;2023-02-22T07:37:41;96059.75;;;4.16;86.48
45345;BME280;31078;48.304;11.896;2023-02-22T07:40:08;96066.72;;;4.23;85.74
45345;BME280;31078;48.304;11.896;2023-02-22T07:42:49;96061.41;;;4.41;85.55
45345;BME280;31078;48.304;11.896;2023-02-22T07:45:18;96066.69;;;4.52;85.06
45345;BME280;31078;48.304;11.896;2023-02-22T07:47:45;96061.13;;;4.67;84.59
45345;BME280;31078;48.304;11.896;2023-02-22T07:50:12;96064.75;;;4.81;83.78
45345;BME280;31078;48.304;11.896;2023-02-22T07:52:39;96067.03;;;4.69;81.88
45345;BME280;31078;48.304;11.896;2023-02-22T07:55:06;96064.88;;;4.71;82.21
45345;BME280;31078;48.304;11.896;2023-02-22T07:57:32;96070.03;;;4.91;81.23
45345;BME280;31078;48.304;11.896;2023-02-22T07:59:59;96072.81;;;5.05;81.21
45345;BME280;31078;48.304;11.896;2023-02-22T08:02:27;96069.84;;;5.07;80.11
45345;BME280;31078;48.304;11.896;2023-02-22T08:04:53;96067.88;;;5.31;80.37
45345;BME280;31078;48.304;11.896;2023-02-22T08:07:20;96061.81;;;5.96;77.35
45345;BME280;31078;48.304;11.896;2023-02-22T08:09:46;96061.53;;;6.58;73.52
45345;BME280;31078;48.304;11.896;2023-02-22T08:12:13;96059.75;;;6.53;73.06
45345;BME280;31078;48.304;11.896;2023-02-22T08:14:40;96046.94;;;6.59;74.66
45345;BME280;31078;48.304;11.896;2023-02-22T08:17:07;96052.72;;;6.66;74.68
45345;BME280;31078;48.304;11.896;2023-02-22T08:19:35;96047.91;;;7.18;72.98
45345;BME280;31078;48.304;11.896;2023-02-22T08:22:02;96040.13;;;8.20;69.97
45345;BME280;31078;48.304;11.896;2023-02-22T08:24:28;96043.38;;;9.01;66.97
45345;BME280;31078;48.304;11.896;2023-02-22T08:26:54;96044.28;;;9.80;63.54
45345;BME280;31078;48.304;11.896;2023-02-22T08:29:21;96055.78;;;10.20;59.91
45345;BME280;31078;48.304;11.896;2023-02-22T08:31:49;96044.25;;;10.79;57.61
45345;BME280;31078;48.304;11.896;2023-02-22T08:34:18;96047.25;;;12.16;55.21
45345;BME280;31078;48.304;11.896;2023-02-22T08:36:45;96039.44;;;13.09;51.10
45345;BME280;31078;48.304;11.896;2023-02-22T08:39:13;96047.28;;;13.72;49.01
45345;BME280;31078;48.304;11.896;2023-02-22T08:41:40;96049.28;;;14.27;47.45
45345;BME280;31078;48.304;11.896;2023-02-22T08:44:07;96046.25;;;15.20;44.79
45345;BME280;31078;48.304;11.896;2023-02-22T08:46:33;96042.78;;;15.23;43.89
45345;BME280;31078;48.304;11.896;2023-02-22T08:49:00;96038.50;;;14.34;43.40
45345;BME280;31078;48.304;11.896;2023-02-22T08:51:27;96040.00;;;14.04;44.56
45345;BME280;31078;48.304;11.896;2023-02-22T08:53:55;96049.25;;;13.59;45.78
45345;BME280;31078;48.304;11.896;2023-02-22T08:56:22;96037.13;;;13.84;45.65
45345;BME280;31078;48.304;11.896;2023-02-22T08:58:48;96042.13;;;13.95;45.48
45345;BME280;31078;48.304;11.896;2023-02-22T09:01:15;96032.88;;;13.22;47.42
45345;BME280;31078;48.304;11.896;2023-02-22T09:03:41;96038.75;;;12.88;49.13
45345;BME280;31078;48.304;11.896;2023-02-22T09:06:07;96033.38;;;12.67;47.14
45345;BME280;31078;48.304;11.896;2023-02-22T09:08:34;96040.31;;;12.19;48.76
45345;BME280;31078;48.304;11.896;2023-02-22T09:11:02;96035.88;;;12.26;48.49
45345;BME280;31078;48.304;11.896;2023-02-22T09:13:28;96030.13;;;12.40;49.11
45345;BME280;31078;48.304;11.896;2023-02-22T09:15:55;96029.66;;;11.63;51.25
45345;BME280;31078;48.304;11.896;2023-02-22T09:18:21;96032.22;;;10.88;52.52
45345;BME280;31078;48.304;11.896;2023-02-22T09:20:48;96019.75;;;11.80;51.37
45345;BME280;31078;48.304;11.896;2023-02-22T09:23:14;96025.75;;;12.48;49.46
45345;BME280;31078;48.304;11.896;2023-02-22T09:25:41;96020.78;;;12.87;49.66
45345;BME280;31078;48.304;11.896;2023-02-22T09:28:09;96022.16;;;13.05;48.32
45345;BME280;31078;48.304;11.896;2023-02-22T09:30:35;96022.81;;;12.77;49.58
45345;BME280;31078;48.304;11.896;2023-02-22T09:33:05;96023.53;;;13.11;49.94
45345;BME280;31078;48.304;11.896;2023-02-22T09:35:34;96019.31;;;13.91;47.72
45345;BME280;31078;48.304;11.896;2023-02-22T09:38:02;96014.94;;;14.02;47.48
45345;BME280;31078;48.304;11.896;2023-02-22T09:40:31;96018.88;;;13.89;47.22
45345;BME280;31078;48.304;11.896;2023-02-22T09:43:07;96016.81;;;13.86;47.49
45345;BME280;31078;48.304;11.896;2023-02-22T09:45:38;96015.81;;;14.34;46.30
45345;BME280;31078;48.304;11.896;2023-02-22T09:48:13;96012.44;;;15.16;44.42
45345;BME280;31078;48.304;11.896;2023-02-22T09:50:44;96015.22;;;16.06;42.62
45345;BME280;31078;48.304;11.896;2023-02-22T09:53:18;96016.31;;;16.63;40.33
45345;BME280;31078;48.304;11.896;2023-02-22T09:55:56;96015.13;;;17.29;40.26
45345;BME280;31078;48.304;11.896;2023-02-22T09:58:29;96005.28;;;17.05;39.56
45345;BME280;31078;48.304;11.896;2023-02-22T10:01:08;95998.44;;;17.71;38.95
45345;BME280;31078;48.304;11.896;2023-02-22T10:03:45;96002.41;;;17.74;37.70
45345;BME280;31078;48.304;11.896;2023-02-22T10:06:16;96002.69;;;17.65;38.13
45345;BME280;31078;48.304;11.896;2023-02-22T10:08:45;95995.84;;;17.82;38.65
45345;BME280;31078;48.304;11.896;2023-02-22T10:11:22;95997.94;;;17.92;38.08
45345;BME280;31078;48.304;11.896;2023-02-22T10:13:54;95994.53;;;17.72;38.66
45345;BME280;31078;48.304;11.896;2023-02-22T10:16:30;95989.25;;;17.64;38.07
45345;BME280;31078;48.304;11.896;2023-02-22T10:19:09;95986.84;;;17.32;38.33
45345;BME280;31078;48.304;11.896;2023-02-22T10:21:52;95983.81;;;16.88;40.34
45345;BME280;31078;48.304;11.896;2023-02-22T10:24:33;95983.94;;;16.53;41.87
45345;BME280;31078;48.304;11.896;2023-02-22T10:27:04;95981.09;;;16.26;43.22
45345;BME280;31078;48.304;11.896;2023-02-22T10:29:35;95978.81;;;15.89;43.57
45345;BME280;31078;48.304;11.896;2023-02-22T10:32:10;95976.53;;;15.56;44.04
45345;BME280;31078;48.304;11.896;2023-02-22T10:34:43;95985.84;;;15.52;45.57
45345;BME280;31078;48.304;11.896;2023-02-22T10:37:20;95970.47;;;15.31;45.57
45345;BME280;31078;48.304;11.896;2023-02-22T10:39:52;95973.03;;;15.24;45.12
45345;BME280;31078;48.304;11.896;2023-02-22T10:42:24;95977.75;;;15.08;45.87
45345;BME280;31078;48.304;11.896;2023-02-22T10:44:51;95965.13;;;15.19;46.30
45345;BME280;31078;48.304;11.896;2023-02-22T10:47:19;95966.94;;;15.31;46.71
45345;BME280;31078;48.304;11.896;2023-02-22T10:49:48;95964.81;;;14.73;46.94
45345;BME280;31078;48.304;11.896;2023-02-22T10:52:18;95962.22;;;14.80;47.83
45345;BME280;31078;48.304;11.896;2023-02-22T10:54:49;95956.31;;;14.78;49.25
45345;BME280;31078;48.304;11.896;2023-02-22T10:57:19;95960.47;;;14.88;48.81
45345;BME280;31078;48.304;11.896;2023-02-22T10:59:47;95959.31;;;14.73;47.67
45345;BME280;31078;48.304;11.896;2023-02-22T11:02:19;95955.53;;;14.62;48.68
45345;BME280;31078;48.304;11.896;2023-02-22T11:04:48;95949.53;;;14.72;48.75
45345;BME280;31078;48.304;11.896;2023-02-22T11:07:21;95951.63;;;14.79;48.75
45345;BME280;31078;48.304;11.896;2023-02-22T11:09:51;95949.16;;;14.58;48.78
45345;BME280;31078;48.304;11.896;2023-02-22T11:12:20;95943.69;;;14.58;49.27
45345;BME280;31078;48.304;11.896;2023-02-22T11:14:47;95942.00;;;14.53;49.16
45345;BME280;31078;48.304;11.896;2023-02-22T11:17:18;95936.00;;;14.48;50.23
45345;BME280;31078;48.304;11.896;2023-02-22T11:19:49;95940.84;;;14.70;48.97
45345;BME280;31078;48.304;11.896;2023-02-22T11:22:20;95930.75;;;14.74;49.19
45345;BME280;31078;48.304;11.896;2023-02-22T11:24:49;95927.59;;;14.72;49.44
45345;BME280;31078;48.304;11.896;2023-02-22T11:27:27;95928.88;;;14.94;49.81
45345;BME280;31078;48.304;11.896;2023-02-22T11:30:05;95925.66;;;15.08;49.41
45345;BME280;31078;48.304;11.896;2023-02-22T11:32:33;95920.06;;;15.20;48.53
45345;BME280;31078;48.304;11.896;2023-02-22T11:35:19;95910.56;;;15.33;47.71
45345;BME280;31078;48.304;11.896;2023-02-22T11:37:51;95907.53;;;15.58;47.41
45345;BME280;31078;48.304;11.896;2023-02-22T11:40:20;95902.72;;;15.90;45.87
45345;BME280;31078;48.304;11.896;2023-02-22T11:42:48;95901.72;;;16.21;44.97
45345;BME280;31078;48.304;11.896;2023-02-22T11:45:16;95899.09;;;16.97;43.83
45345;BME280;31078;48.304;11.896;2023-02-22T11:47:48;95900.00;;;17.65;41.46
45345;BME280;31078;48.304;11.896;2023-02-22T11:50:24;95892.63;;;17.42;40.72
45345;BME280;31078;48.304;11.896;2023-02-22T11:55:43;95886.31;;;17.38;42.37
45345;BME280;31078;48.304;11.896;2023-02-22T11:58:25;95881.66;;;17.16;41.80
45345;BME280;31078;48.304;11.896;2023-02-22T12:01:01;95873.97;;;16.99;42.52
45345;BME280;31078;48.304;11.896;2023-02-22T12:06:45;95880.50;;;17.47;41.28
45345;BME280;31078;48.304;11.896;2023-02-22T12:09:18;95879.75;;;17.20;42.00
45345;BME280;31078;48.304;11.896;2023-02-22T12:11:55;95871.03;;;17.14;42.88
45345;BME280;31078;48.304;11.896;2023-02-22T12:14:29;95871.75;;;17.08;42.33
45345;BME280;31078;48.304;11.896;2023-02-22T12:19:52;95858.59;;;17.24;42.83
45345;BME280;31078;48.304;11.896;2023-02-22T12:22:24;95863.34;;;17.27;42.63
45345;BME280;31078;48.304;11.896;2023-02-22T12:24:56;95867.16;;;17.19;42.83
45345;BME280;31078;48.304;11.896;2023-02-22T12:27:28;95857.00;;;17.23;43.36
45345;BME280;31078;48.304;11.896;2023-02-22T12:29:59;95857.09;;;17.30;42.30
45345;BME280;31078;48.304;11.896;2023-02-22T12:32:32;95849.25;;;17.32;42.33
45345;BME280;31078;48.304;11.896;2023-02-22T12:35:07;95850.84;;;17.33;42.46
45345;BME280;31078;48.304;11.896;2023-02-22T12:37:39;95844.91;;;17.61;41.83
45345;BME280;31078;48.304;11.896;2023-02-22T12:40:15;95843.00;;;17.35;42.91
45345;BME280;31078;48.304;11.896;2023-02-22T12:42:52;95846.00;;;17.87;42.96
45345;BME280;31078;48.304;11.896;2023-02-22T12:45:28;95848.38;;;17.88;41.57
45345;BME280;31078;48.304;11.896;2023-02-22T12:48:00;95840.09;;;17.55;41.88
45345;BME280;31078;48.304;11.896;2023-02-22T12:50:32;95843.25;;;17.57;42.37
45345;BME280;31078;48.304;11.896;2023-02-22T12:53:08;95838.97;;;17.93;41.94
45345;BME280;31078;48.304;11.896;2023-02-22T12:55:41;95832.81;;;18.07;41.03
45345;BME280;31078;48.304;11.896;2023-02-22T12:58:18;95840.84;;;18.26;41.74
45345;BME280;31078;48.304;11.896;2023-02-22T13:00:54;95837.75;;;18.79;39.74
45345;BME280;31078;48.304;11.896;2023-02-22T13:03:30;95833.91;;;18.91;40.36
45345;BME280;31078;48.304;11.896;2023-02-22T13:06:06;95831.97;;;18.98;40.06
45345;BME280;31078;48.304;11.896;2023-02-22T13:08:42;95821.78;;;19.10;39.02
45345;BME280;31078;48.304;11.896;2023-02-22T13:11:18;95814.81;;;19.26;39.14
45345;BME280;31078;48.304;11.896;2023-02-22T13:13:53;95820.88;;;19.68;38.33
45345;BME280;31078;48.304;11.896;2023-02-22T13:16:33;95822.59;;;20.40;36.69
45345;BME280;31078;48.304;11.896;2023-02-22T13:19:06;95813.53;;;20.90;35.03
45345;BME280;31078;48.304;11.896;2023-02-22T13:21:44;95814.19;;;21.47;35.85
45345;BME280;31078;48.304;11.896;2023-02-22T13:24:18;95812.28;;;22.10;34.04
45345;BME280;31078;48.304;11.896;2023-02-22T13:26:49;95817.78;;;21.23;34.70